Mellette, South Dakota
Current Conditions -  °F | °C
As of 6:53 AM on Sunday 23 Nov 2014 (Local Time) from KABR Reporting Station
Overcast Overcast  
Wind Chill: 31°   Ceiling: 8000
Heat Index: 39°   Visibility: 10mi
Dew Point: 34°   Wind: 14mph
Humidity: 82%   Direction: 290°WNW
Pressure: 29.47"   Gusts: NA
Location:  45.15°N, 98.5°W
Report Text: KABR 231253Z AUTO 29012KT 10SM OVC080 04/01 A2947 RMK AO2 SLP991 T00390011
Loading
Personal Weather Stations






























Interactive Weather Map New forecast layout! Learn more

10-Day Weather Forecast

Advertisements
Track Severe Weather on mobile